Time;durP1;ratioP1;P1;durP2;ratioP2;P2;SDS_P1;SDS_P2;PMS_P1;PMS_P2;Temp;Humidity;BMP_temperature;BMP_pressure;BME280_temperature;BME280_humidity;BME280_pressure;Samples;Min_cycle;Max_cycle;Signal;HPM_P1;HPM_P2
2023/06/02 00:01:32;;;;;;;4.37;3.63;;;16.00;99.90;;;;;;5113049;28;20474;-87
2023/06/02 00:04:01;;;;;;;6.27;3.77;;;15.80;99.90;;;;;;5113261;28;20899;-87
2023/06/02 00:06:30;;;;;;;6.43;4.00;;;15.80;99.90;;;;;;5113010;28;20887;-87
2023/06/02 00:08:59;;;;;;;3.97;3.00;;;15.90;99.90;;;;;;5112037;28;20483;-87
2023/06/02 00:11:27;;;;;;;5.83;4.27;;;16.00;99.90;;;;;;5113445;28;20472;-87
2023/06/02 00:13:54;;;;;;;4.00;3.40;;;16.00;99.90;;;;;;5113073;28;20438;-87
2023/06/02 00:16:21;;;;;;;4.97;4.47;;;15.90;99.90;;;;;;5112707;28;20460;-87
2023/06/02 00:18:52;;;;;;;4.33;3.80;;;15.80;99.90;;;;;;5112920;28;20530;-87
2023/06/02 00:21:20;;;;;;;5.23;3.67;;;15.60;99.90;;;;;;5112997;28;20501;-87
2023/06/02 00:23:47;;;;;;;5.97;3.70;;;15.70;99.90;;;;;;5112769;28;20457;-87
2023/06/02 00:26:14;;;;;;;7.07;3.87;;;15.60;99.90;;;;;;5111090;28;20622;-87
2023/06/02 00:28:43;;;;;;;6.70;4.00;;;15.50;99.90;;;;;;5113327;28;20569;-87
2023/06/02 00:31:10;;;;;;;5.27;4.00;;;15.30;99.90;;;;;;5113051;28;20454;-87
2023/06/02 00:33:37;;;;;;;5.73;3.70;;;15.10;99.90;;;;;;5112409;28;20490;-87
2023/06/02 00:36:04;;;;;;;4.83;4.33;;;15.10;99.90;;;;;;5112721;28;20667;-87
2023/06/02 00:38:31;;;;;;;5.53;4.60;;;15.00;99.90;;;;;;5121563;28;20480;-85
2023/06/02 00:40:58;;;;;;;4.73;3.70;;;15.20;99.90;;;;;;5129989;27;20457;-84
2023/06/02 00:43:25;;;;;;;5.87;4.00;;;15.20;99.90;;;;;;5129710;28;20443;-84
2023/06/02 00:45:54;;;;;;;5.73;3.67;;;15.20;99.90;;;;;;5129772;28;20475;-85
2023/06/02 00:48:21;;;;;;;5.13;4.10;;;15.30;99.90;;;;;;5130208;28;20424;-84
2023/06/02 00:50:48;;;;;;;5.53;4.00;;;15.00;99.90;;;;;;5128564;28;20497;-85
2023/06/02 00:53:16;;;;;;;5.70;4.07;;;15.00;99.90;;;;;;5127144;28;20446;-84
2023/06/02 00:55:43;;;;;;;6.03;3.70;;;15.20;99.90;;;;;;5128753;28;20523;-85
2023/06/02 00:58:13;;;;;;;4.43;3.60;;;15.30;99.90;;;;;;5129806;28;20434;-85
2023/06/02 01:00:40;;;;;;;5.13;4.10;;;15.30;99.90;;;;;;5130408;28;20473;-85
2023/06/02 01:03:09;;;;;;;5.70;3.97;;;15.40;99.90;;;;;;5129789;28;20490;-84
2023/06/02 01:05:37;;;;;;;5.40;4.10;;;15.40;99.90;;;;;;5130388;28;20469;-84
2023/06/02 01:08:07;;;;;;;4.77;4.10;;;15.40;99.90;;;;;;5129127;28;20858;-84
2023/06/02 01:10:36;;;;;;;6.50;4.40;;;15.40;99.90;;;;;;5129433;28;20478;-85
2023/06/02 01:13:03;;;;;;;4.27;3.50;;;15.40;99.90;;;;;;5128862;28;20496;-85
2023/06/02 01:15:31;;;;;;;6.30;4.07;;;15.40;99.90;;;;;;5132303;28;20430;-84
2023/06/02 01:17:59;;;;;;;5.30;4.63;;;15.40;99.90;;;;;;5132356;28;20468;-84
2023/06/02 01:20:28;;;;;;;5.70;4.53;;;15.30;99.90;;;;;;5128885;28;20477;-85
2023/06/02 01:23:16;;;;;;;4.90;3.70;;;15.30;99.90;;;;;;5128052;28;20438;-84
2023/06/02 01:25:46;;;;;;;5.33;3.90;;;15.20;99.90;;;;;;5128316;28;20500;-85
2023/06/02 01:28:15;;;;;;;5.50;3.97;;;15.10;99.90;;;;;;5127308;28;20447;-85
2023/06/02 01:30:42;;;;;;;5.33;4.00;;;15.00;99.90;;;;;;5128147;28;20503;-85
2023/06/02 01:33:17;;;;;;;6.93;4.30;;;15.00;99.90;;;;;;5127167;28;20468;-85
2023/06/02 01:35:46;;;;;;;5.40;3.43;;;15.00;99.90;;;;;;5128609;28;20509;-85
2023/06/02 01:38:15;;;;;;;4.87;4.37;;;14.90;99.90;;;;;;5128225;28;20439;-85
2023/06/02 01:40:44;;;;;;;5.17;4.37;;;14.90;99.90;;;;;;5128777;28;20450;-85
2023/06/02 01:43:12;;;;;;;4.80;3.90;;;15.00;99.90;;;;;;5128774;28;20482;-84
2023/06/02 01:45:41;;;;;;;5.87;4.33;;;14.90;99.90;;;;;;5128893;28;20516;-85
2023/06/02 01:48:10;;;;;;;4.77;4.00;;;14.90;99.90;;;;;;5126761;28;20461;-85
2023/06/02 01:50:38;;;;;;;5.07;3.67;;;14.90;99.90;;;;;;5127433;28;20865;-85
2023/06/02 01:53:05;;;;;;;5.60;4.70;;;14.90;99.90;;;;;;5127830;28;20464;-85
2023/06/02 01:55:33;;;;;;;5.50;4.07;;;15.00;99.90;;;;;;5128931;28;20437;-85
2023/06/02 01:58:01;;;;;;;4.97;3.43;;;15.00;99.90;;;;;;5128798;28;20443;-85
2023/06/02 02:00:28;;;;;;;4.40;3.20;;;15.00;99.90;;;;;;5128607;28;20469;-85
2023/06/02 02:02:55;;;;;;;5.57;4.43;;;15.00;99.90;;;;;;5127620;28;20437;-85
2023/06/02 02:05:22;;;;;;;5.50;3.97;;;14.90;99.90;;;;;;5127311;28;21015;-85
2023/06/02 02:07:50;;;;;;;6.93;4.20;;;14.90;99.90;;;;;;5128851;28;20476;-84
2023/06/02 02:10:18;;;;;;;4.43;3.47;;;14.90;99.90;;;;;;5127135;28;20466;-84
2023/06/02 02:12:45;;;;;;;6.00;3.57;;;14.80;99.90;;;;;;5128773;28;20451;-84
2023/06/02 02:15:14;;;;;;;5.70;4.03;;;14.80;99.90;;;;;;5127104;28;20441;-84
2023/06/02 02:17:45;;;;;;;6.23;4.70;;;14.80;99.90;;;;;;5128436;28;20468;-84
2023/06/02 02:20:17;;;;;;;4.30;3.37;;;14.80;99.90;;;;;;5130767;28;20469;-84
2023/06/02 02:22:44;;;;;;;5.23;4.00;;;14.70;99.90;;;;;;5131888;28;20889;-85
2023/06/02 02:25:11;;;;;;;4.67;4.10;;;14.70;99.90;;;;;;5131215;28;20434;-84
2023/06/02 02:27:39;;;;;;;5.50;4.43;;;14.60;99.90;;;;;;5128715;28;20439;-84
2023/06/02 02:30:07;;;;;;;4.33;3.80;;;14.60;99.90;;;;;;5130744;28;20470;-85
2023/06/02 02:32:37;;;;;;;4.67;4.00;;;14.70;99.90;;;;;;5131149;28;20480;-85
2023/06/02 02:35:05;;;;;;;5.10;3.87;;;14.60;99.90;;;;;;5132440;28;20431;-84
2023/06/02 02:37:32;;;;;;;5.87;4.20;;;14.70;99.90;;;;;;5132028;28;20427;-85
2023/06/02 02:39:59;;;;;;;5.53;3.77;;;14.60;99.90;;;;;;5130241;28;20435;-84
2023/06/02 02:42:26;;;;;;;4.27;3.50;;;14.60;99.90;;;;;;5130017;28;20434;-84
2023/06/02 02:44:53;;;;;;;7.10;4.60;;;14.60;99.90;;;;;;5131998;28;20451;-85
2023/06/02 02:47:20;;;;;;;10.30;4.20;;;14.60;99.90;;;;;;5132253;28;20467;-85
2023/06/02 02:49:48;;;;;;;6.10;4.23;;;14.60;99.90;;;;;;5132005;28;20441;-85
2023/06/02 02:52:15;;;;;;;5.57;4.40;;;14.60;99.90;;;;;;5132461;28;20455;-85
2023/06/02 02:54:42;;;;;;;6.23;4.30;;;14.60;99.90;;;;;;5130896;28;20450;-84
2023/06/02 02:57:09;;;;;;;4.83;3.90;;;14.50;99.90;;;;;;5131335;28;20443;-85
2023/06/02 02:59:37;;;;;;;5.20;3.83;;;14.50;99.90;;;;;;5132562;28;20435;-85
2023/06/02 03:02:05;;;;;;;5.40;3.93;;;14.50;99.90;;;;;;5131505;28;20533;-85
2023/06/02 03:04:32;;;;;;;4.90;4.40;;;14.50;99.90;;;;;;5130914;28;20527;-85
2023/06/02 03:07:01;;;;;;;5.10;3.77;;;14.50;99.90;;;;;;5129729;28;20472;-85
2023/06/02 03:09:28;;;;;;;4.90;4.40;;;14.40;99.90;;;;;;5129666;28;20460;-85
2023/06/02 03:11:57;;;;;;;5.10;4.27;;;13.90;99.90;;;;;;5130738;28;20524;-85
2023/06/02 03:14:26;;;;;;;5.80;4.30;;;13.90;99.90;;;;;;5130523;28;20431;-85
2023/06/02 03:16:53;;;;;;;5.73;4.60;;;13.90;99.90;;;;;;5130455;28;20443;-84
2023/06/02 03:19:21;;;;;;;5.60;4.07;;;13.90;99.90;;;;;;5130595;28;20443;-85
2023/06/02 03:21:48;;;;;;;6.47;3.93;;;14.10;99.90;;;;;;5128517;28;20474;-85
2023/06/02 03:24:18;;;;;;;6.70;4.70;;;14.10;99.90;;;;;;5128690;28;20447;-85
2023/06/02 03:26:45;;;;;;;6.87;4.67;;;14.20;99.90;;;;;;5126486;28;20472;-84
2023/06/02 03:29:13;;;;;;;7.50;4.67;;;14.30;99.90;;;;;;5129065;28;20445;-85
2023/06/02 03:31:41;;;;;;;5.40;4.60;;;14.40;99.90;;;;;;5127454;28;20461;-84
2023/06/02 03:34:09;;;;;;;5.67;4.17;;;14.40;99.90;;;;;;5129122;28;20481;-84
2023/06/02 03:36:36;;;;;;;4.63;3.90;;;14.40;99.90;;;;;;5130138;28;20436;-85
2023/06/02 03:39:05;;;;;;;5.73;3.87;;;14.40;99.90;;;;;;5130351;28;20471;-85
2023/06/02 03:41:34;;;;;;;9.60;4.77;;;14.40;99.90;;;;;;5128198;28;20962;-85
2023/06/02 03:44:01;;;;;;;5.20;4.00;;;14.50;99.90;;;;;;5128060;28;20439;-84
2023/06/02 03:46:28;;;;;;;5.07;4.00;;;14.50;99.90;;;;;;5129974;28;20472;-85
2023/06/02 03:48:55;;;;;;;5.27;3.90;;;14.40;99.90;;;;;;5128547;28;20444;-84
2023/06/02 03:51:23;;;;;;;5.63;4.50;;;14.30;99.90;;;;;;5130263;28;20483;-84
2023/06/02 03:53:50;;;;;;;6.10;4.37;;;14.20;99.90;;;;;;5127689;28;20502;-84
2023/06/02 03:56:19;;;;;;;6.30;4.50;;;14.20;99.90;;;;;;5129536;28;20436;-85
2023/06/02 03:58:47;;;;;;;5.67;4.20;;;14.20;99.90;;;;;;5129422;28;21011;-85
2023/06/02 04:01:16;;;;;;;6.20;4.60;;;14.20;99.90;;;;;;5130327;28;20467;-84
2023/06/02 04:03:43;;;;;;;7.13;4.80;;;13.90;99.90;;;;;;5129964;28;20443;-85
2023/06/02 04:06:10;;;;;;;8.97;4.30;;;14.00;99.90;;;;;;5130017;28;20469;-84
2023/06/02 04:08:37;;;;;;;6.10;4.27;;;14.00;99.90;;;;;;5129150;28;20439;-84
2023/06/02 04:11:04;;;;;;;7.37;5.13;;;14.10;99.90;;;;;;5130238;28;20444;-84
2023/06/02 04:13:31;;;;;;;5.53;4.00;;;14.10;99.90;;;;;;5129545;28;20468;-85
2023/06/02 04:16:00;;;;;;;4.30;3.63;;;14.10;99.90;;;;;;5130701;28;20433;-85
2023/06/02 04:18:28;;;;;;;6.30;4.13;;;14.20;99.90;;;;;;5129150;28;20435;-85
2023/06/02 04:20:55;;;;;;;5.80;4.60;;;14.20;99.90;;;;;;5127430;28;20457;-85
2023/06/02 04:23:22;;;;;;;5.23;3.90;;;14.20;99.90;;;;;;5129532;28;20444;-85
2023/06/02 04:25:49;;;;;;;5.60;4.07;;;14.20;99.90;;;;;;5127721;28;20446;-84
2023/06/02 04:28:16;;;;;;;5.33;4.20;;;14.20;99.90;;;;;;5125864;28;20855;-85
2023/06/02 04:30:43;;;;;;;5.40;4.53;;;14.20;99.90;;;;;;5124896;28;20456;-84
2023/06/02 04:33:13;;;;;;;7.77;4.77;;;14.00;99.90;;;;;;5128099;28;20469;-84
2023/06/02 04:35:40;;;;;;;5.53;4.90;;;13.90;99.90;;;;;;5128833;28;20462;-85
2023/06/02 04:38:07;;;;;;;5.00;4.50;;;13.90;99.90;;;;;;5128976;28;20457;-84
2023/06/02 04:40:37;;;;;;;5.43;4.03;;;13.90;99.90;;;;;;5128296;28;20487;-85
2023/06/02 04:43:04;;;;;;;7.57;4.90;;;14.00;99.90;;;;;;5127596;28;20430;-85
2023/06/02 04:45:31;;;;;;;5.80;4.60;;;14.00;99.90;;;;;;5128492;28;20448;-85
2023/06/02 04:47:58;;;;;;;7.90;5.03;;;14.10;99.90;;;;;;5127733;28;20493;-85
2023/06/02 04:50:27;;;;;;;6.10;4.27;;;14.20;99.90;;;;;;5127797;28;20451;-84
2023/06/02 04:52:54;;;;;;;5.63;4.50;;;14.20;99.90;;;;;;5129908;28;20443;-84
2023/06/02 04:55:22;;;;;;;4.93;4.10;;;14.30;99.90;;;;;;5129029;28;20439;-84
2023/06/02 04:57:49;;;;;;;6.30;5.20;;;14.30;99.90;;;;;;5132576;28;20439;-84
2023/06/02 05:00:16;;;;;;;6.93;4.67;;;14.40;99.90;;;;;;5127369;28;20470;-85
2023/06/02 05:02:46;;;;;;;8.97;4.60;;;14.30;99.90;;;;;;5118380;28;20431;-86
2023/06/02 05:05:13;;;;;;;4.37;3.90;;;14.20;99.90;;;;;;5123425;28;20452;-86
2023/06/02 05:07:41;;;;;;;7.63;4.83;;;14.30;99.90;;;;;;5125417;28;20456;-83
2023/06/02 05:10:09;;;;;;;7.90;5.00;;;14.30;99.90;;;;;;5131752;28;20433;-84
2023/06/02 05:12:41;;;;;;;8.57;4.53;;;14.30;99.90;;;;;;5127732;28;20862;-82
2023/06/02 05:15:09;;;;;;;6.30;4.80;;;14.30;99.90;;;;;;5124236;28;20439;-85
2023/06/02 05:17:36;;;;;;;7.37;6.00;;;14.40;99.90;;;;;;5121592;28;20459;-81
2023/06/02 05:20:04;;;;;;;7.30;5.20;;;14.30;99.90;;;;;;5123378;28;20494;-82
2023/06/02 05:22:31;;;;;;;6.60;5.30;;;14.20;99.90;;;;;;5124425;28;20451;-83
2023/06/02 05:24:59;;;;;;;6.17;4.70;;;14.20;99.90;;;;;;5126153;28;20432;-81
2023/06/02 05:27:26;;;;;;;6.10;5.50;;;14.20;99.90;;;;;;5131890;28;20485;-82
2023/06/02 05:29:53;;;;;;;7.67;5.17;;;14.30;99.90;;;;;;5131490;28;20419;-82
2023/06/02 05:32:24;;;;;;;6.00;4.80;;;14.30;99.90;;;;;;5131434;28;20435;-82
2023/06/02 05:34:51;;;;;;;5.70;4.63;;;14.30;99.90;;;;;;5130928;28;20432;-82
2023/06/02 05:37:18;;;;;;;6.43;4.60;;;14.40;99.90;;;;;;5131352;28;20414;-82
2023/06/02 05:39:45;;;;;;;5.93;4.67;;;14.40;99.90;;;;;;5131277;28;20428;-82
2023/06/02 05:42:13;;;;;;;6.87;5.20;;;14.50;99.90;;;;;;5129054;28;20463;-82
2023/06/02 05:44:40;;;;;;;5.83;4.57;;;14.50;99.90;;;;;;5128258;28;20928;-82
2023/06/02 05:47:07;;;;;;;10.80;5.10;;;14.40;99.90;;;;;;5115143;28;20471;-82
2023/06/02 05:49:34;;;;;;;5.70;5.07;;;14.50;99.90;;;;;;5111129;28;20438;-82
2023/06/02 05:52:01;;;;;;;6.10;4.83;;;14.50;99.90;;;;;;5111944;28;20532;-81
2023/06/02 05:54:28;;;;;;;5.30;4.17;;;14.60;99.90;;;;;;5119155;28;20530;-83
2023/06/02 05:56:55;;;;;;;7.50;4.77;;;14.60;99.90;;;;;;5128516;28;20499;-83
2023/06/02 05:59:23;;;;;;;6.70;5.00;;;14.60;99.90;;;;;;5127987;28;20448;-83
2023/06/02 06:01:50;;;;;;;6.00;4.37;;;14.70;99.90;;;;;;5127616;28;20460;-83
2023/06/02 06:04:17;;;;;;;5.33;4.80;;;14.80;99.90;;;;;;5127754;28;20444;-83
2023/06/02 06:06:44;;;;;;;6.17;4.80;;;14.80;99.90;;;;;;5128926;28;20481;-83
2023/06/02 06:09:11;;;;;;;7.27;5.33;;;15.00;99.90;;;;;;5127385;28;20475;-83
2023/06/02 06:11:38;;;;;;;6.10;4.97;;;15.20;99.90;;;;;;5122799;28;20493;-83
2023/06/02 06:14:07;;;;;;;6.30;4.83;;;15.30;99.90;;;;;;5128917;28;20445;-83
2023/06/02 06:16:37;;;;;;;6.07;4.07;;;15.40;99.90;;;;;;5125559;28;20895;-83
2023/06/02 06:19:04;;;;;;;6.43;5.33;;;15.70;99.90;;;;;;5119917;27;20434;-83
2023/06/02 06:21:31;;;;;;;7.30;5.50;;;15.90;99.90;;;;;;5127927;28;20465;-83
2023/06/02 06:23:58;;;;;;;5.23;4.73;;;16.00;99.90;;;;;;5125711;28;20436;-83
2023/06/02 06:26:25;;;;;;;5.70;4.60;;;16.30;99.90;;;;;;5118457;28;20434;-83
2023/06/02 06:28:52;;;;;;;5.43;4.90;;;16.50;99.90;;;;;;5123867;28;20966;-83
2023/06/02 06:31:19;;;;;;;5.37;3.97;;;16.60;99.90;;;;;;5126119;28;20480;-83
2023/06/02 06:33:47;;;;;;;5.40;4.03;;;16.70;99.90;;;;;;5118211;28;20536;-83
2023/06/02 06:36:14;;;;;;;5.33;4.80;;;16.70;99.90;;;;;;5126718;28;20447;-83
2023/06/02 06:38:42;;;;;;;7.70;4.70;;;16.70;99.90;;;;;;5125314;28;20999;-85
2023/06/02 06:41:09;;;;;;;5.73;4.70;;;16.60;99.90;;;;;;5121403;28;20494;-85
2023/06/02 06:43:35;;;;;;;5.73;4.90;;;16.60;99.90;;;;;;5112800;28;20479;-84
2023/06/02 06:46:02;;;;;;;4.80;4.30;;;16.60;99.90;;;;;;5106261;27;20737;-85
2023/06/02 06:48:29;;;;;;;8.73;5.20;;;16.60;99.90;;;;;;5115849;28;20507;-84
2023/06/02 06:50:58;;;;;;;5.83;4.10;;;16.60;99.90;;;;;;5114807;28;20504;-84
2023/06/02 06:53:25;;;;;;;6.80;5.43;;;16.60;99.90;;;;;;5107610;28;20891;-85
2023/06/02 06:55:52;;;;;;;6.43;4.67;;;16.60;99.90;;;;;;5104437;28;20533;-85
2023/06/02 06:58:18;;;;;;;5.23;4.67;;;16.70;99.90;;;;;;5111679;28;20493;-85
2023/06/02 07:00:45;;;;;;;7.20;4.97;;;16.80;99.90;;;;;;5119003;28;20859;-85
2023/06/02 07:03:12;;;;;;;8.13;5.33;;;16.80;99.90;;;;;;5113793;28;20482;-84
2023/06/02 07:05:39;;;;;;;6.27;4.73;;;16.80;99.90;;;;;;5115259;28;20519;-84
2023/06/02 07:08:07;;;;;;;6.60;5.10;;;16.80;99.90;;;;;;5120235;28;20827;-84
2023/06/02 07:10:34;;;;;;;5.50;4.60;;;16.80;99.90;;;;;;5119008;27;20487;-85
2023/06/02 07:13:02;;;;;;;6.40;4.87;;;16.80;99.90;;;;;;5116358;28;20447;-84
2023/06/02 07:15:28;;;;;;;7.33;4.77;;;16.70;99.90;;;;;;5110494;28;20456;-84
2023/06/02 07:17:55;;;;;;;6.20;4.37;;;16.90;99.90;;;;;;5118058;28;20935;-85
2023/06/02 07:20:22;;;;;;;6.63;4.93;;;16.90;99.90;;;;;;5113710;28;20468;-85
2023/06/02 07:22:49;;;;;;;5.67;4.73;;;17.00;99.90;;;;;;5119640;28;20483;-84
2023/06/02 07:25:17;;;;;;;6.50;4.50;;;17.10;99.90;;;;;;5108313;28;20937;-85
2023/06/02 07:27:44;;;;;;;8.80;5.50;;;17.20;99.90;;;;;;5099450;28;20516;-84
2023/06/02 07:30:12;;;;;;;5.30;4.70;;;17.30;99.90;;;;;;5098922;28;20502;-85
2023/06/02 07:32:39;;;;;;;6.93;5.23;;;17.50;99.90;;;;;;5099831;28;20471;-85
2023/06/02 07:35:07;;;;;;;5.50;4.50;;;17.60;99.90;;;;;;5109171;28;20502;-84
2023/06/02 07:37:34;;;;;;;6.40;4.70;;;17.70;99.90;;;;;;5122177;28;20438;-84
2023/06/02 07:40:01;;;;;;;6.23;4.27;;;17.80;99.90;;;;;;5123594;28;20463;-85
2023/06/02 07:42:29;;;;;;;6.97;5.10;;;17.80;99.90;;;;;;5117276;28;20481;-85
2023/06/02 07:44:56;;;;;;;6.77;5.30;;;18.00;99.90;;;;;;5109027;28;20439;-84
2023/06/02 07:47:23;;;;;;;5.93;5.07;;;18.10;99.90;;;;;;5100572;28;20477;-85
2023/06/02 07:49:50;;;;;;;10.40;6.03;;;18.10;99.90;;;;;;5101432;28;20508;-85
2023/06/02 07:52:17;;;;;;;5.43;4.70;;;18.20;99.90;;;;;;5098097;28;20492;-84
2023/06/02 07:54:44;;;;;;;5.87;4.40;;;18.30;99.90;;;;;;5097704;28;20472;-84
2023/06/02 07:57:11;;;;;;;5.80;4.80;;;18.50;99.90;;;;;;5098428;28;20441;-84
2023/06/02 07:59:39;;;;;;;5.47;4.87;;;18.50;99.90;;;;;;5102930;28;20507;-85
2023/06/02 08:02:07;;;;;;;4.87;4.33;;;18.60;99.90;;;;;;5110278;28;20453;-85
2023/06/02 08:04:34;;;;;;;5.33;4.43;;;18.70;99.90;;;;;;5107903;28;20454;-84
2023/06/02 08:07:01;;;;;;;5.90;4.80;;;18.80;99.90;;;;;;5105114;28;20439;-84
2023/06/02 08:09:28;;;;;;;5.00;4.40;;;18.80;99.90;;;;;;5104514;28;20532;-85
2023/06/02 08:11:55;;;;;;;5.33;4.70;;;19.00;99.90;;;;;;5117287;28;20507;-85
2023/06/02 08:14:21;;;;;;;9.10;4.50;;;19.00;99.90;;;;;;5115933;28;20482;-84
2023/06/02 08:16:50;;;;;;;6.33;4.70;;;19.00;99.90;;;;;;5116431;28;20885;-85
2023/06/02 08:19:20;;;;;;;7.90;4.83;;;19.00;99.90;;;;;;5116537;28;20438;-84
2023/06/02 08:21:47;;;;;;;6.03;5.10;;;19.00;99.90;;;;;;5117077;28;20475;-84
2023/06/02 08:24:14;;;;;;;5.93;4.77;;;19.10;99.90;;;;;;5118856;28;20468;-84
2023/06/02 08:26:41;;;;;;;5.70;5.03;;;19.20;99.90;;;;;;5115999;28;20438;-84
2023/06/02 08:29:09;;;;;;;6.03;4.90;;;19.30;99.90;;;;;;5113592;28;20475;-85
2023/06/02 08:31:37;;;;;;;7.43;5.70;;;19.30;99.90;;;;;;5105871;28;20499;-84
2023/06/02 08:34:06;;;;;;;8.27;6.13;;;19.40;99.90;;;;;;5100859;28;20522;-85
2023/06/02 08:36:33;;;;;;;6.90;5.20;;;19.40;99.90;;;;;;5109719;28;20443;-85
2023/06/02 08:39:06;;;;;;;6.27;5.17;;;19.50;99.90;;;;;;5112595;28;20967;-85
2023/06/02 08:41:38;;;;;;;6.33;4.77;;;19.50;99.90;;;;;;5106346;28;21033;-85
2023/06/02 08:44:05;;;;;;;5.10;4.60;;;19.60;99.90;;;;;;5112708;28;20447;-85
2023/06/02 08:46:32;;;;;;;7.70;4.70;;;19.60;99.90;;;;;;5106498;28;20452;-85
2023/06/02 08:49:01;;;;;;;7.00;5.10;;;19.70;99.90;;;;;;5110284;28;20512;-84
2023/06/02 08:51:33;;;;;;;5.77;4.53;;;19.80;99.90;;;;;;5106897;28;20542;-85
2023/06/02 08:54:01;;;;;;;5.87;4.63;;;19.90;99.90;;;;;;5101261;28;20479;-85
2023/06/02 08:56:29;;;;;;;7.83;5.67;;;20.10;99.90;;;;;;5107618;28;20905;-85
2023/06/02 08:58:56;;;;;;;6.40;5.30;;;20.10;99.90;;;;;;5112450;28;20859;-85
2023/06/02 09:01:23;;;;;;;7.17;5.40;;;20.20;99.90;;;;;;5092917;28;20559;-84
2023/06/02 09:03:50;;;;;;;6.43;5.03;;;20.30;99.90;;;;;;5093724;28;20472;-85
2023/06/02 09:06:22;;;;;;;7.00;5.80;;;20.30;99.90;;;;;;5092050;28;20813;-84
2023/06/02 09:08:58;;;;;;;5.03;4.53;;;20.40;99.90;;;;;;5090630;28;20481;-85
2023/06/02 09:11:25;;;;;;;6.97;6.17;;;20.50;99.90;;;;;;5101818;28;20463;-85
2023/06/02 09:13:53;;;;;;;5.67;3.33;;;20.60;99.90;;;;;;5104125;28;20475;-85
2023/06/02 09:16:21;;;;;;;6.57;5.00;;;20.80;99.90;;;;;;5102401;28;20814;-85
2023/06/02 09:18:58;;;;;;;6.60;4.87;;;20.90;99.90;;;;;;5106050;28;20439;-84
2023/06/02 09:21:28;;;;;;;9.83;5.60;;;21.00;99.90;;;;;;5099967;28;20464;-85
2023/06/02 09:23:56;;;;;;;5.77;4.87;;;21.00;99.90;;;;;;5092275;28;20443;-85
2023/06/02 09:26:26;;;;;;;5.23;4.53;;;21.00;99.90;;;;;;5093291;28;20532;-85
2023/06/02 09:29:05;;;;;;;6.93;5.27;;;21.10;99.90;;;;;;5096481;28;20562;-85
2023/06/02 09:31:44;;;;;;;6.17;5.33;;;21.20;99.90;;;;;;5100061;28;20463;-85
2023/06/02 09:34:12;;;;;;;6.20;4.93;;;21.30;99.90;;;;;;5097973;28;20460;-85
2023/06/02 09:36:38;;;;;;;5.50;4.47;;;21.30;99.90;;;;;;5098135;28;20526;-85
2023/06/02 09:39:10;;;;;;;6.60;5.20;;;21.30;99.90;;;;;;5099837;28;20510;-85
2023/06/02 09:41:37;;;;;;;6.83;5.10;;;21.40;99.90;;;;;;5111538;28;20460;-85
2023/06/02 09:44:12;;;;;;;6.53;5.40;;;21.50;99.90;;;;;;5110466;27;20871;-85
2023/06/02 09:46:45;;;;;;;9.00;6.37;;;21.70;99.90;;;;;;5118876;27;20864;-85
2023/06/02 09:49:12;;;;;;;8.20;6.23;;;21.70;99.90;;;;;;5116641;27;20506;-85
2023/06/02 09:51:39;;;;;;;6.80;5.87;;;21.80;99.90;;;;;;5113051;28;20483;-85
2023/06/02 09:54:08;;;;;;;7.40;5.73;;;22.00;99.90;;;;;;5104715;27;20478;-85
2023/06/02 09:56:37;;;;;;;8.23;5.50;;;22.00;99.90;;;;;;5113895;27;20445;-85
2023/06/02 09:59:06;;;;;;;6.10;4.20;;;22.10;99.90;;;;;;5120834;28;20506;-85
2023/06/02 10:01:33;;;;;;;7.40;4.73;;;22.20;99.90;;;;;;5115840;28;20466;-86
2023/06/02 10:04:00;;;;;;;4.97;4.47;;;22.20;99.90;;;;;;5113308;27;20458;-85
2023/06/02 10:06:47;;;;;;;6.50;4.53;;;22.20;99.90;;;;;;5112578;28;20475;-85
2023/06/02 10:09:33;;;;;;;4.80;4.30;;;22.30;99.90;;;;;;5117090;28;20523;-84
2023/06/02 10:12:16;;;;;;;7.23;4.67;;;22.30;97.40;;;;;;5119251;27;20546;-84
2023/06/02 10:14:58;;;;;;;5.30;4.43;;;22.50;99.30;;;;;;5121920;28;20469;-84
2023/06/02 10:17:35;;;;;;;4.30;3.60;;;22.60;99.20;;;;;;5119881;28;20455;-84
2023/06/02 10:20:27;;;;;;;6.00;4.50;;;22.70;99.20;;;;;;5115249;28;20451;-84
2023/06/02 10:23:24;;;;;;;5.40;4.20;;;22.70;98.30;;;;;;5111403;27;20501;-84
2023/06/02 10:26:23;;;;;;;7.03;4.20;;;22.80;99.40;;;;;;5099144;28;21010;-83
2023/06/02 10:28:53;;;;;;;4.73;3.73;;;22.70;97.70;;;;;;5099331;28;20459;-82
2023/06/02 10:31:31;;;;;;;4.87;4.20;;;22.70;99.50;;;;;;5105576;28;20546;-86
2023/06/02 10:34:00;;;;;;;4.83;3.80;;;22.90;93.70;;;;;;5115952;28;20438;-87
2023/06/02 10:36:29;;;;;;;6.63;4.30;;;22.90;99.20;;;;;;5112967;28;20431;-86
2023/06/02 10:38:58;;;;;;;4.80;3.67;;;22.90;95.40;;;;;;5115890;28;20903;-87
2023/06/02 10:42:11;;;;;;;6.07;4.87;;;23.00;94.30;;;;;;5113194;28;20469;-87
2023/06/02 10:44:39;;;;;;;5.90;4.50;;;23.10;96.30;;;;;;5069675;28;20491;-87
2023/06/02 10:47:37;;;;;;;7.07;4.30;;;23.10;96.40;;;;;;5109409;28;21007;-86
2023/06/02 10:50:09;;;;;;;5.43;4.20;;;23.20;93.80;;;;;;5082252;28;20418;-86
2023/06/02 10:53:10;;;;;;;5.17;3.97;;;23.30;93.60;;;;;;5099376;28;20446;-85
2023/06/02 10:55:40;;;;;;;5.73;3.70;;;23.30;95.40;;;;;;5093647;28;20551;-85
2023/06/02 10:58:12;;;;;;;6.50;4.40;;;23.20;97.70;;;;;;5094901;28;20428;-85
2023/06/02 11:00:50;;;;;;;5.80;4.37;;;23.20;98.50;;;;;;5094573;28;20475;-86
2023/06/02 11:03:34;;;;;;;7.77;4.13;;;23.20;96.90;;;;;;5092339;28;20475;-86
2023/06/02 11:06:25;;;;;;;5.10;3.77;;;23.20;97.90;;;;;;5092819;28;20478;-86
2023/06/02 11:08:54;;;;;;;4.33;3.47;;;23.30;98.80;;;;;;5105713;28;20534;-85
2023/06/02 11:11:54;;;;;;;5.57;3.67;;;23.30;96.70;;;;;;5105263;28;20447;-86
2023/06/02 11:14:25;;;;;;;5.67;4.90;;;23.30;97.90;;;;;;5111589;28;20503;-86
2023/06/02 11:17:31;;;;;;;5.70;3.67;;;23.30;95.00;;;;;;5113587;28;20454;-86
2023/06/02 11:19:59;;;;;;;4.33;3.73;;;23.40;97.60;;;;;;5103544;28;20451;-86
2023/06/02 11:22:28;;;;;;;5.73;3.97;;;23.40;98.30;;;;;;5093434;28;20436;-86
2023/06/02 11:24:58;;;;;;;4.63;4.13;;;23.40;97.10;;;;;;5101191;28;20448;-86
2023/06/02 11:27:44;;;;;;;6.07;4.10;;;23.50;94.40;;;;;;5113284;28;20931;-86
2023/06/02 11:30:16;;;;;;;9.00;3.97;;;23.50;96.60;;;;;;5113917;28;20515;-86
2023/06/02 11:32:47;;;;;;;5.30;3.63;;;23.50;98.30;;;;;;5113288;28;20459;-86
2023/06/02 11:35:17;;;;;;;5.30;4.10;;;23.50;95.90;;;;;;5111644;28;20959;-86
2023/06/02 11:38:01;;;;;;;6.90;4.23;;;23.60;93.60;;;;;;5105348;28;20451;-86
2023/06/02 11:40:31;;;;;;;6.13;3.53;;;23.70;97.60;;;;;;5097792;28;20467;-86
2023/06/02 11:43:00;;;;;;;5.37;3.80;;;23.80;93.90;;;;;;5112792;28;20496;-85
2023/06/02 11:45:29;;;;;;;4.23;3.13;;;23.80;93.50;;;;;;5106741;28;20456;-86
2023/06/02 11:48:01;;;;;;;4.47;3.60;;;24.00;97.90;;;;;;5099875;28;20523;-86
2023/06/02 11:50:28;;;;;;;4.20;3.27;;;24.10;97.40;;;;;;5103538;28;20498;-86
2023/06/02 11:52:55;;;;;;;5.47;3.60;;;24.30;92.80;;;;;;5104184;28;20547;-85
2023/06/02 11:55:26;;;;;;;5.60;4.03;;;24.40;93.90;;;;;;5110043;28;20450;-86
2023/06/02 11:57:53;;;;;;;4.63;3.90;;;24.40;96.30;;;;;;5104249;28;20463;-86
2023/06/02 12:00:21;;;;;;;7.20;4.70;;;24.50;93.70;;;;;;5113405;28;20463;-86
2023/06/02 12:02:51;;;;;;;5.23;3.80;;;24.60;96.40;;;;;;5111110;28;20426;-86
2023/06/02 12:05:32;;;;;;;5.50;4.40;;;24.60;94.90;;;;;;5111883;28;20936;-85
2023/06/02 12:08:11;;;;;;;5.07;3.57;;;24.60;93.60;;;;;;5103956;28;20459;-86
2023/06/02 12:10:38;;;;;;;5.40;3.70;;;24.60;88.50;;;;;;5119459;28;20476;-89
2023/06/02 12:13:05;;;;;;;4.70;4.00;;;24.60;95.00;;;;;;5130061;27;20439;-86
2023/06/02 12:15:34;;;;;;;4.33;3.60;;;24.70;95.10;;;;;;5103680;28;20474;-86
2023/06/02 12:18:04;;;;;;;6.53;4.20;;;24.80;96.90;;;;;;5112565;28;20443;-86
2023/06/02 12:20:41;;;;;;;7.00;4.00;;;24.80;96.20;;;;;;5112882;28;20482;-86
2023/06/02 12:23:09;;;;;;;7.20;4.03;;;24.80;94.00;;;;;;5112532;28;20942;-86
2023/06/02 12:25:37;;;;;;;6.43;3.93;;;24.80;92.00;;;;;;5112922;28;20530;-85
2023/06/02 12:28:10;;;;;;;5.80;4.03;;;24.90;95.40;;;;;;5112562;28;20443;-86
2023/06/02 12:30:36;;;;;;;5.90;4.67;;;24.90;95.90;;;;;;5113073;28;20466;-87
2023/06/02 12:33:09;;;;;;;5.73;3.80;;;25.00;97.90;;;;;;5112164;28;20504;-85
2023/06/02 12:35:36;;;;;;;5.20;3.37;;;25.00;98.10;;;;;;5112542;28;20454;-86
2023/06/02 12:38:04;;;;;;;5.20;3.73;;;25.00;96.20;;;;;;5112255;28;20519;-86
2023/06/02 12:40:32;;;;;;;7.80;4.37;;;25.00;95.00;;;;;;5112198;28;20795;-86
2023/06/02 12:42:59;;;;;;;7.30;3.50;;;25.00;95.80;;;;;;5111936;28;20522;-86
2023/06/02 12:45:26;;;;;;;5.87;4.70;;;25.00;93.80;;;;;;5112499;28;20481;-86
2023/06/02 12:47:54;;;;;;;5.40;3.93;;;25.00;95.80;;;;;;5112041;28;20516;-86
2023/06/02 12:50:22;;;;;;;18.27;5.20;;;25.00;96.00;;;;;;5112246;28;20475;-86
2023/06/02 12:52:50;;;;;;;6.97;3.97;;;25.10;90.20;;;;;;5111773;28;20511;-86
2023/06/02 12:55:18;;;;;;;5.57;4.40;;;25.10;88.70;;;;;;5109197;28;20477;-85
2023/06/02 12:57:46;;;;;;;8.20;4.23;;;25.10;93.50;;;;;;5111916;28;20459;-86